Vilnius, Lithuania

4:17 AM EEST on September 02, 2014 (GMT +0300)
Vilnius International | Change Station
CLOSE
Current Station
Airport
Location: Vilnius,
Elevation: 643 ft
Nearby Weather Stations

Elev 643 ft 54.63 °N, 25.29 °E | Updated 27 minutes ago

Scattered Clouds
Scattered Clouds
46 °F
Feels Like 42 °F
N
8
Wind Variable Wind from North

Today
High -- | Low -- °F
--% Chance of Precip.
Yesterday
High -- | Low -- °F
Precip. -- in
6:27 AM 8:08 PM
Waxing Crescent, 46% visible
Pressure 30.12 in
Visibility 4.3 miles
Clouds Scattered Clouds 3500 ft
Windchill 42 °F
Dew Point 46 °F
Humidity 100%
Rainfall 0.00 in
Snow Depth Not available.
UV 0 out of 12
Pollen Not available.
Air Quality Not available.
Flu Activity Not available.
METAR EYVI 020050Z 36007KT 7000 SCT035 08/08 Q1020 NOSIG

More Conditions Fewer Conditions

Pressure 30.12 in
Visibility 4.3 miles
Clouds Scattered Clouds 3500 ft
Windchill 42 °F
Dew Point 46 °F
Humidity 100%
Rainfall 0.00 in
Snow Depth Not available.
UV 0 out of 12
Pollen Not available.
Air Quality Not available.
Flu Activity Not available.
METAR EYVI 020050Z 36007KT 7000 SCT035 08/08 Q1020 NOSIG

More Conditions Fewer Conditions

10-Day Weather Forecast

Almanac

Astronomy

Sep. 02, 2014 Rise Set
Actual Time 6:27 AM EEST 8:08 PM EEST
Civil Twilight 5:49 AM EEST 8:46 PM EEST
Nautical Twilight 5:02 AM EEST 9:33 PM EEST
Astronomical Twilight 4:08 AM EEST 10:25 PM EEST
Moon 3:00 PM EEST 11:36 PM EEST
Length of Visible Light 14h 56m
Length of Day
13h 41m
Tomorrow will be 4m 19s shorter.
Waxing Crescent, 46% of the Moon is Illuminated
Sep 1
Waxing Crescent
Sep 2
First Quarter
Sep 8
Full
Sep 15
Last Quarter
Sep 24
New

Yesterday's Extremes

Country Highs Country Lows

Community

WunderPhotos

Upload Photos

1,749,476 photos uploaded!

Nearby

Snow Depth

Not available.

Earthquake Activity

City Distance Mag. Time & Date
No recent earthquake activity has been reported nearby.
Minimum magnitude displayed is 2.5.

Coastal Water Temperatures

Place Temperature
No Stations Reporting

Nearby Weather Stations